sensor_id;sensor_type;location;lat;lon;timestamp;P1;durP1;ratioP1;P2;durP2;ratioP2
8636;SDS011;4356;49.068;8.658;2023-04-30T00:00:18;0.97;;;0.97;;
8636;SDS011;4356;49.068;8.658;2023-04-30T00:02:44;0.90;;;0.90;;
8636;SDS011;4356;49.068;8.658;2023-04-30T00:05:09;0.67;;;0.67;;
8636;SDS011;4356;49.068;8.658;2023-04-30T00:07:35;1.03;;;1.03;;
8636;SDS011;4356;49.068;8.658;2023-04-30T00:10:01;0.73;;;0.73;;
8636;SDS011;4356;49.068;8.658;2023-04-30T00:12:27;1.53;;;1.47;;
8636;SDS011;4356;49.068;8.658;2023-04-30T00:14:52;0.80;;;0.80;;
8636;SDS011;4356;49.068;8.658;2023-04-30T00:17:20;0.77;;;0.77;;
8636;SDS011;4356;49.068;8.658;2023-04-30T00:19:46;0.90;;;0.90;;
8636;SDS011;4356;49.068;8.658;2023-04-30T00:22:11;1.13;;;1.13;;
8636;SDS011;4356;49.068;8.658;2023-04-30T00:24:37;0.87;;;0.87;;
8636;SDS011;4356;49.068;8.658;2023-04-30T00:27:02;1.03;;;1.03;;
8636;SDS011;4356;49.068;8.658;2023-04-30T00:29:28;0.80;;;0.80;;
8636;SDS011;4356;49.068;8.658;2023-04-30T00:31:53;0.70;;;0.70;;
8636;SDS011;4356;49.068;8.658;2023-04-30T00:34:19;1.13;;;1.13;;
8636;SDS011;4356;49.068;8.658;2023-04-30T00:36:45;1.23;;;1.17;;
8636;SDS011;4356;49.068;8.658;2023-04-30T00:39:10;1.03;;;1.03;;
8636;SDS011;4356;49.068;8.658;2023-04-30T00:41:36;0.90;;;0.90;;
8636;SDS011;4356;49.068;8.658;2023-04-30T00:44:03;2.67;;;1.10;;
8636;SDS011;4356;49.068;8.658;2023-04-30T00:46:30;1.30;;;1.30;;
8636;SDS011;4356;49.068;8.658;2023-04-30T00:48:56;0.70;;;0.70;;
8636;SDS011;4356;49.068;8.658;2023-04-30T00:51:22;0.93;;;0.93;;
8636;SDS011;4356;49.068;8.658;2023-04-30T00:53:48;0.83;;;0.83;;
8636;SDS011;4356;49.068;8.658;2023-04-30T00:56:13;0.77;;;0.77;;
8636;SDS011;4356;49.068;8.658;2023-04-30T00:58:42;0.90;;;0.90;;
8636;SDS011;4356;49.068;8.658;2023-04-30T01:01:08;1.03;;;1.03;;
8636;SDS011;4356;49.068;8.658;2023-04-30T01:03:34;0.70;;;0.70;;
8636;SDS011;4356;49.068;8.658;2023-04-30T01:06:01;0.87;;;0.87;;
8636;SDS011;4356;49.068;8.658;2023-04-30T01:08:28;0.70;;;0.70;;
8636;SDS011;4356;49.068;8.658;2023-04-30T01:16:40;1.10;;;1.10;;
8636;SDS011;4356;49.068;8.658;2023-04-30T01:22:05;1.20;;;1.20;;
8636;SDS011;4356;49.068;8.658;2023-04-30T01:24:47;0.77;;;0.77;;
8636;SDS011;4356;49.068;8.658;2023-04-30T01:30:34;0.97;;;0.97;;
8636;SDS011;4356;49.068;8.658;2023-04-30T01:33:01;1.27;;;1.20;;
8636;SDS011;4356;49.068;8.658;2023-04-30T01:38:05;1.27;;;1.27;;
8636;SDS011;4356;49.068;8.658;2023-04-30T01:40:38;1.23;;;1.23;;
8636;SDS011;4356;49.068;8.658;2023-04-30T01:54:20;1.10;;;1.10;;
8636;SDS011;4356;49.068;8.658;2023-04-30T01:56:56;1.27;;;1.27;;
8636;SDS011;4356;49.068;8.658;2023-04-30T01:59:30;1.10;;;1.10;;
8636;SDS011;4356;49.068;8.658;2023-04-30T02:01:57;1.50;;;1.50;;
8636;SDS011;4356;49.068;8.658;2023-04-30T02:04:23;1.30;;;1.30;;
8636;SDS011;4356;49.068;8.658;2023-04-30T02:06:48;1.67;;;1.57;;
8636;SDS011;4356;49.068;8.658;2023-04-30T02:09:14;1.20;;;1.20;;
8636;SDS011;4356;49.068;8.658;2023-04-30T02:11:39;1.20;;;1.20;;
8636;SDS011;4356;49.068;8.658;2023-04-30T02:14:05;1.60;;;1.60;;
8636;SDS011;4356;49.068;8.658;2023-04-30T02:16:31;1.47;;;1.37;;
8636;SDS011;4356;49.068;8.658;2023-04-30T02:18:56;1.80;;;1.70;;
8636;SDS011;4356;49.068;8.658;2023-04-30T02:21:22;1.63;;;1.53;;
8636;SDS011;4356;49.068;8.658;2023-04-30T02:23:48;1.70;;;1.60;;
8636;SDS011;4356;49.068;8.658;2023-04-30T02:26:13;1.70;;;1.60;;
8636;SDS011;4356;49.068;8.658;2023-04-30T02:28:39;1.20;;;1.20;;
8636;SDS011;4356;49.068;8.658;2023-04-30T02:31:05;1.30;;;1.30;;
8636;SDS011;4356;49.068;8.658;2023-04-30T02:33:30;1.23;;;1.23;;
8636;SDS011;4356;49.068;8.658;2023-04-30T02:35:57;1.13;;;1.13;;
8636;SDS011;4356;49.068;8.658;2023-04-30T02:38:24;1.40;;;1.40;;
8636;SDS011;4356;49.068;8.658;2023-04-30T02:40:50;1.17;;;1.17;;
8636;SDS011;4356;49.068;8.658;2023-04-30T02:43:15;1.50;;;1.50;;
8636;SDS011;4356;49.068;8.658;2023-04-30T02:45:41;1.23;;;1.23;;
8636;SDS011;4356;49.068;8.658;2023-04-30T02:48:06;1.27;;;1.27;;
8636;SDS011;4356;49.068;8.658;2023-04-30T02:50:32;1.17;;;1.17;;
8636;SDS011;4356;49.068;8.658;2023-04-30T02:52:58;1.30;;;1.30;;
8636;SDS011;4356;49.068;8.658;2023-04-30T02:55:24;1.30;;;1.30;;
8636;SDS011;4356;49.068;8.658;2023-04-30T02:57:49;1.73;;;1.67;;
8636;SDS011;4356;49.068;8.658;2023-04-30T03:00:15;1.43;;;1.43;;
8636;SDS011;4356;49.068;8.658;2023-04-30T03:02:41;1.63;;;1.53;;
8636;SDS011;4356;49.068;8.658;2023-04-30T03:05:07;1.23;;;1.23;;
8636;SDS011;4356;49.068;8.658;2023-04-30T03:07:33;1.77;;;1.67;;
8636;SDS011;4356;49.068;8.658;2023-04-30T03:09:59;1.73;;;1.63;;
8636;SDS011;4356;49.068;8.658;2023-04-30T03:12:24;1.53;;;1.47;;
8636;SDS011;4356;49.068;8.658;2023-04-30T03:14:50;2.00;;;1.90;;
8636;SDS011;4356;49.068;8.658;2023-04-30T03:17:16;1.43;;;1.43;;
8636;SDS011;4356;49.068;8.658;2023-04-30T03:19:42;1.47;;;1.47;;
8636;SDS011;4356;49.068;8.658;2023-04-30T03:22:07;1.70;;;1.60;;
8636;SDS011;4356;49.068;8.658;2023-04-30T03:24:33;1.80;;;1.73;;
8636;SDS011;4356;49.068;8.658;2023-04-30T03:26:58;1.40;;;1.40;;
8636;SDS011;4356;49.068;8.658;2023-04-30T03:29:26;1.60;;;1.50;;
8636;SDS011;4356;49.068;8.658;2023-04-30T03:31:51;1.50;;;1.50;;
8636;SDS011;4356;49.068;8.658;2023-04-30T03:34:17;1.63;;;1.63;;
8636;SDS011;4356;49.068;8.658;2023-04-30T03:36:43;1.73;;;1.63;;
8636;SDS011;4356;49.068;8.658;2023-04-30T03:39:08;1.80;;;1.70;;
8636;SDS011;4356;49.068;8.658;2023-04-30T03:41:35;1.40;;;1.40;;
8636;SDS011;4356;49.068;8.658;2023-04-30T03:44:01;1.47;;;1.47;;
8636;SDS011;4356;49.068;8.658;2023-04-30T03:46:26;1.50;;;1.50;;
8636;SDS011;4356;49.068;8.658;2023-04-30T03:48:52;1.67;;;1.67;;
8636;SDS011;4356;49.068;8.658;2023-04-30T03:51:18;1.77;;;1.67;;
8636;SDS011;4356;49.068;8.658;2023-04-30T03:53:45;1.63;;;1.60;;
8636;SDS011;4356;49.068;8.658;2023-04-30T03:56:10;1.57;;;1.47;;
8636;SDS011;4356;49.068;8.658;2023-04-30T03:58:38;1.50;;;1.50;;
8636;SDS011;4356;49.068;8.658;2023-04-30T04:01:04;1.50;;;1.50;;
8636;SDS011;4356;49.068;8.658;2023-04-30T04:03:30;1.40;;;1.40;;
8636;SDS011;4356;49.068;8.658;2023-04-30T04:05:58;1.33;;;1.33;;
8636;SDS011;4356;49.068;8.658;2023-04-30T04:08:23;1.60;;;1.60;;
8636;SDS011;4356;49.068;8.658;2023-04-30T04:10:49;1.60;;;1.60;;
8636;SDS011;4356;49.068;8.658;2023-04-30T04:13:14;1.50;;;1.50;;
8636;SDS011;4356;49.068;8.658;2023-04-30T04:15:40;1.00;;;1.00;;
8636;SDS011;4356;49.068;8.658;2023-04-30T04:18:06;1.63;;;1.53;;
8636;SDS011;4356;49.068;8.658;2023-04-30T04:20:32;1.80;;;1.70;;
8636;SDS011;4356;49.068;8.658;2023-04-30T04:22:58;1.60;;;1.50;;
8636;SDS011;4356;49.068;8.658;2023-04-30T04:25:26;1.57;;;1.57;;
8636;SDS011;4356;49.068;8.658;2023-04-30T04:27:55;1.20;;;1.20;;
8636;SDS011;4356;49.068;8.658;2023-04-30T04:30:21;1.23;;;1.23;;
8636;SDS011;4356;49.068;8.658;2023-04-30T04:32:47;1.50;;;1.50;;
8636;SDS011;4356;49.068;8.658;2023-04-30T04:35:16;2.00;;;1.90;;
8636;SDS011;4356;49.068;8.658;2023-04-30T04:37:43;1.63;;;1.63;;
8636;SDS011;4356;49.068;8.658;2023-04-30T04:40:09;1.00;;;1.00;;
8636;SDS011;4356;49.068;8.658;2023-04-30T04:42:36;1.50;;;1.50;;
8636;SDS011;4356;49.068;8.658;2023-04-30T04:45:04;1.27;;;1.27;;
8636;SDS011;4356;49.068;8.658;2023-04-30T04:47:31;1.47;;;1.47;;
8636;SDS011;4356;49.068;8.658;2023-04-30T04:49:57;1.17;;;1.07;;
8636;SDS011;4356;49.068;8.658;2023-04-30T04:52:23;1.83;;;1.73;;
8636;SDS011;4356;49.068;8.658;2023-04-30T04:54:48;1.50;;;1.43;;
8636;SDS011;4356;49.068;8.658;2023-04-30T04:57:14;1.30;;;1.30;;
8636;SDS011;4356;49.068;8.658;2023-04-30T04:59:40;1.33;;;1.33;;
8636;SDS011;4356;49.068;8.658;2023-04-30T05:02:05;1.77;;;1.77;;
8636;SDS011;4356;49.068;8.658;2023-04-30T05:04:31;1.30;;;1.30;;
8636;SDS011;4356;49.068;8.658;2023-04-30T05:06:57;1.40;;;1.40;;
8636;SDS011;4356;49.068;8.658;2023-04-30T05:09:22;1.80;;;1.70;;
8636;SDS011;4356;49.068;8.658;2023-04-30T05:11:51;1.70;;;1.67;;
8636;SDS011;4356;49.068;8.658;2023-04-30T05:14:17;1.87;;;1.80;;
8636;SDS011;4356;49.068;8.658;2023-04-30T05:16:42;1.53;;;1.53;;
8636;SDS011;4356;49.068;8.658;2023-04-30T05:19:11;1.60;;;1.60;;
8636;SDS011;4356;49.068;8.658;2023-04-30T05:21:40;1.93;;;1.93;;
8636;SDS011;4356;49.068;8.658;2023-04-30T05:24:06;1.90;;;1.80;;
8636;SDS011;4356;49.068;8.658;2023-04-30T05:26:32;1.97;;;1.87;;
8636;SDS011;4356;49.068;8.658;2023-04-30T05:28:57;1.27;;;1.27;;
8636;SDS011;4356;49.068;8.658;2023-04-30T05:31:23;1.93;;;1.83;;
8636;SDS011;4356;49.068;8.658;2023-04-30T05:33:48;1.67;;;1.57;;
8636;SDS011;4356;49.068;8.658;2023-04-30T05:36:14;1.80;;;1.70;;
8636;SDS011;4356;49.068;8.658;2023-04-30T05:38:40;1.47;;;1.47;;
8636;SDS011;4356;49.068;8.658;2023-04-30T05:41:06;2.20;;;2.10;;
8636;SDS011;4356;49.068;8.658;2023-04-30T05:43:31;2.27;;;2.17;;
8636;SDS011;4356;49.068;8.658;2023-04-30T05:45:57;1.93;;;1.83;;
8636;SDS011;4356;49.068;8.658;2023-04-30T05:48:23;1.80;;;1.70;;
8636;SDS011;4356;49.068;8.658;2023-04-30T05:50:51;2.10;;;2.00;;
8636;SDS011;4356;49.068;8.658;2023-04-30T05:53:17;2.27;;;2.17;;
8636;SDS011;4356;49.068;8.658;2023-04-30T05:55:43;2.03;;;1.93;;
8636;SDS011;4356;49.068;8.658;2023-04-30T05:58:08;2.00;;;1.90;;
8636;SDS011;4356;49.068;8.658;2023-04-30T06:00:34;1.90;;;1.90;;
8636;SDS011;4356;49.068;8.658;2023-04-30T06:03:00;0.90;;;0.90;;
8636;SDS011;4356;49.068;8.658;2023-04-30T06:05:25;2.37;;;2.27;;
8636;SDS011;4356;49.068;8.658;2023-04-30T06:07:51;2.30;;;2.20;;
8636;SDS011;4356;49.068;8.658;2023-04-30T06:10:17;2.23;;;2.13;;
8636;SDS011;4356;49.068;8.658;2023-04-30T06:12:42;1.60;;;1.50;;
8636;SDS011;4356;49.068;8.658;2023-04-30T06:15:08;2.10;;;2.00;;
8636;SDS011;4356;49.068;8.658;2023-04-30T06:17:34;1.70;;;1.60;;
8636;SDS011;4356;49.068;8.658;2023-04-30T06:20:00;1.87;;;1.77;;
8636;SDS011;4356;49.068;8.658;2023-04-30T06:22:30;2.33;;;2.23;;
8636;SDS011;4356;49.068;8.658;2023-04-30T06:24:56;1.90;;;1.80;;
8636;SDS011;4356;49.068;8.658;2023-04-30T06:27:22;1.90;;;1.80;;
8636;SDS011;4356;49.068;8.658;2023-04-30T06:29:48;2.07;;;1.97;;
8636;SDS011;4356;49.068;8.658;2023-04-30T06:32:15;2.47;;;2.37;;
8636;SDS011;4356;49.068;8.658;2023-04-30T06:34:40;2.33;;;2.23;;
8636;SDS011;4356;49.068;8.658;2023-04-30T06:37:06;2.17;;;2.07;;
8636;SDS011;4356;49.068;8.658;2023-04-30T06:39:32;2.20;;;2.10;;
8636;SDS011;4356;49.068;8.658;2023-04-30T06:41:57;1.70;;;1.70;;
8636;SDS011;4356;49.068;8.658;2023-04-30T06:44:23;2.37;;;2.27;;
8636;SDS011;4356;49.068;8.658;2023-04-30T06:46:48;2.23;;;2.13;;
8636;SDS011;4356;49.068;8.658;2023-04-30T06:49:14;1.93;;;1.83;;
8636;SDS011;4356;49.068;8.658;2023-04-30T06:51:40;1.87;;;1.77;;
8636;SDS011;4356;49.068;8.658;2023-04-30T06:54:07;2.27;;;2.17;;
8636;SDS011;4356;49.068;8.658;2023-04-30T06:56:32;2.07;;;1.97;;
8636;SDS011;4356;49.068;8.658;2023-04-30T06:58:58;1.90;;;1.80;;
8636;SDS011;4356;49.068;8.658;2023-04-30T07:01:23;2.10;;;2.00;;
8636;SDS011;4356;49.068;8.658;2023-04-30T07:03:49;2.20;;;2.10;;
8636;SDS011;4356;49.068;8.658;2023-04-30T07:06:17;1.90;;;1.83;;
8636;SDS011;4356;49.068;8.658;2023-04-30T07:08:43;2.10;;;2.00;;
8636;SDS011;4356;49.068;8.658;2023-04-30T07:11:09;2.27;;;2.17;;
8636;SDS011;4356;49.068;8.658;2023-04-30T07:13:35;1.87;;;1.77;;
8636;SDS011;4356;49.068;8.658;2023-04-30T07:16:01;2.10;;;2.00;;
8636;SDS011;4356;49.068;8.658;2023-04-30T07:18:26;2.47;;;2.37;;
8636;SDS011;4356;49.068;8.658;2023-04-30T07:20:52;2.40;;;2.30;;
8636;SDS011;4356;49.068;8.658;2023-04-30T07:23:18;2.17;;;2.07;;
8636;SDS011;4356;49.068;8.658;2023-04-30T07:25:43;2.37;;;2.17;;
8636;SDS011;4356;49.068;8.658;2023-04-30T07:28:09;1.97;;;1.93;;
8636;SDS011;4356;49.068;8.658;2023-04-30T07:30:35;2.03;;;1.93;;
8636;SDS011;4356;49.068;8.658;2023-04-30T07:33:00;2.17;;;2.07;;
8636;SDS011;4356;49.068;8.658;2023-04-30T07:35:26;2.50;;;2.40;;
8636;SDS011;4356;49.068;8.658;2023-04-30T07:37:52;2.17;;;2.07;;
8636;SDS011;4356;49.068;8.658;2023-04-30T07:40:18;0.53;;;0.53;;
8636;SDS011;4356;49.068;8.658;2023-04-30T07:42:44;2.20;;;2.10;;
8636;SDS011;4356;49.068;8.658;2023-04-30T07:45:10;2.20;;;2.10;;
8636;SDS011;4356;49.068;8.658;2023-04-30T07:47:37;2.33;;;2.23;;
8636;SDS011;4356;49.068;8.658;2023-04-30T07:50:03;2.10;;;2.00;;
8636;SDS011;4356;49.068;8.658;2023-04-30T07:52:29;2.23;;;2.13;;
8636;SDS011;4356;49.068;8.658;2023-04-30T07:54:54;2.17;;;2.07;;
8636;SDS011;4356;49.068;8.658;2023-04-30T07:57:20;2.60;;;2.50;;
8636;SDS011;4356;49.068;8.658;2023-04-30T07:59:46;1.53;;;1.53;;
8636;SDS011;4356;49.068;8.658;2023-04-30T08:02:11;2.10;;;2.00;;
8636;SDS011;4356;49.068;8.658;2023-04-30T08:04:37;2.50;;;2.40;;
8636;SDS011;4356;49.068;8.658;2023-04-30T08:07:03;2.10;;;2.00;;
8636;SDS011;4356;49.068;8.658;2023-04-30T08:09:28;2.47;;;2.37;;
8636;SDS011;4356;49.068;8.658;2023-04-30T08:11:55;2.40;;;2.30;;
8636;SDS011;4356;49.068;8.658;2023-04-30T08:14:20;2.40;;;2.30;;
8636;SDS011;4356;49.068;8.658;2023-04-30T08:16:46;2.53;;;2.43;;
8636;SDS011;4356;49.068;8.658;2023-04-30T08:19:12;2.10;;;2.00;;
8636;SDS011;4356;49.068;8.658;2023-04-30T08:21:37;2.30;;;1.90;;
8636;SDS011;4356;49.068;8.658;2023-04-30T08:24:03;2.17;;;2.07;;
8636;SDS011;4356;49.068;8.658;2023-04-30T08:26:29;1.60;;;1.60;;
8636;SDS011;4356;49.068;8.658;2023-04-30T08:28:55;2.30;;;2.20;;
8636;SDS011;4356;49.068;8.658;2023-04-30T08:31:20;2.03;;;1.93;;
8636;SDS011;4356;49.068;8.658;2023-04-30T08:33:46;2.10;;;2.00;;
8636;SDS011;4356;49.068;8.658;2023-04-30T08:36:12;2.63;;;2.47;;
8636;SDS011;4356;49.068;8.658;2023-04-30T08:38:38;2.43;;;2.33;;
8636;SDS011;4356;49.068;8.658;2023-04-30T08:41:11;1.83;;;1.73;;
8636;SDS011;4356;49.068;8.658;2023-04-30T08:43:38;1.80;;;1.73;;
8636;SDS011;4356;49.068;8.658;2023-04-30T08:46:05;1.77;;;1.70;;
8636;SDS011;4356;49.068;8.658;2023-04-30T08:48:31;1.80;;;1.73;;
8636;SDS011;4356;49.068;8.658;2023-04-30T08:51:01;2.17;;;2.07;;
8636;SDS011;4356;49.068;8.658;2023-04-30T08:53:28;2.30;;;2.17;;
8636;SDS011;4356;49.068;8.658;2023-04-30T08:55:55;2.43;;;2.33;;
8636;SDS011;4356;49.068;8.658;2023-04-30T08:58:22;1.90;;;1.80;;
8636;SDS011;4356;49.068;8.658;2023-04-30T09:00:48;2.10;;;2.00;;
8636;SDS011;4356;49.068;8.658;2023-04-30T09:03:14;1.43;;;1.43;;
8636;SDS011;4356;49.068;8.658;2023-04-30T09:05:40;2.13;;;2.07;;
8636;SDS011;4356;49.068;8.658;2023-04-30T09:08:07;1.77;;;1.67;;
8636;SDS011;4356;49.068;8.658;2023-04-30T09:10:34;1.50;;;1.50;;
8636;SDS011;4356;49.068;8.658;2023-04-30T09:13:04;1.70;;;1.70;;
8636;SDS011;4356;49.068;8.658;2023-04-30T09:15:32;2.10;;;2.00;;
8636;SDS011;4356;49.068;8.658;2023-04-30T09:20:58;2.17;;;2.07;;
8636;SDS011;4356;49.068;8.658;2023-04-30T09:23:28;1.40;;;1.40;;
8636;SDS011;4356;49.068;8.658;2023-04-30T09:25:55;1.20;;;1.20;;
8636;SDS011;4356;49.068;8.658;2023-04-30T09:28:21;2.07;;;1.97;;
8636;SDS011;4356;49.068;8.658;2023-04-30T09:30:49;1.40;;;1.40;;
8636;SDS011;4356;49.068;8.658;2023-04-30T09:33:16;1.40;;;1.40;;
8636;SDS011;4356;49.068;8.658;2023-04-30T09:35:42;1.53;;;1.53;;
8636;SDS011;4356;49.068;8.658;2023-04-30T09:41:00;1.47;;;1.47;;
8636;SDS011;4356;49.068;8.658;2023-04-30T09:43:26;1.00;;;1.00;;
8636;SDS011;4356;49.068;8.658;2023-04-30T09:45:57;1.80;;;1.70;;
8636;SDS011;4356;49.068;8.658;2023-04-30T09:48:24;1.07;;;1.07;;
8636;SDS011;4356;49.068;8.658;2023-04-30T09:50:53;1.30;;;1.30;;
8636;SDS011;4356;49.068;8.658;2023-04-30T09:53:19;1.60;;;1.60;;
8636;SDS011;4356;49.068;8.658;2023-04-30T09:55:46;1.13;;;1.10;;
8636;SDS011;4356;49.068;8.658;2023-04-30T09:58:14;1.23;;;1.17;;
8636;SDS011;4356;49.068;8.658;2023-04-30T10:00:41;1.40;;;1.30;;
8636;SDS011;4356;49.068;8.658;2023-04-30T10:03:10;1.50;;;1.40;;
8636;SDS011;4356;49.068;8.658;2023-04-30T10:05:44;1.50;;;1.50;;
8636;SDS011;4356;49.068;8.658;2023-04-30T10:08:24;1.00;;;1.00;;
8636;SDS011;4356;49.068;8.658;2023-04-30T10:10:57;1.57;;;1.57;;
8636;SDS011;4356;49.068;8.658;2023-04-30T10:13:30;1.10;;;1.10;;
8636;SDS011;4356;49.068;8.658;2023-04-30T10:16:01;0.80;;;0.80;;
8636;SDS011;4356;49.068;8.658;2023-04-30T10:18:39;1.97;;;1.87;;
8636;SDS011;4356;49.068;8.658;2023-04-30T10:21:08;1.03;;;1.03;;
8636;SDS011;4356;49.068;8.658;2023-04-30T10:23:38;1.00;;;1.00;;
8636;SDS011;4356;49.068;8.658;2023-04-30T10:26:07;1.10;;;1.10;;
8636;SDS011;4356;49.068;8.658;2023-04-30T10:28:37;1.03;;;1.03;;
8636;SDS011;4356;49.068;8.658;2023-04-30T10:31:04;1.00;;;1.00;;
8636;SDS011;4356;49.068;8.658;2023-04-30T10:33:33;1.27;;;1.27;;
8636;SDS011;4356;49.068;8.658;2023-04-30T10:36:13;0.83;;;0.83;;
8636;SDS011;4356;49.068;8.658;2023-04-30T10:38:48;1.27;;;1.27;;
8636;SDS011;4356;49.068;8.658;2023-04-30T10:41:15;1.43;;;1.20;;
8636;SDS011;4356;49.068;8.658;2023-04-30T10:43:44;1.00;;;1.00;;
8636;SDS011;4356;49.068;8.658;2023-04-30T10:46:11;0.87;;;0.87;;
8636;SDS011;4356;49.068;8.658;2023-04-30T10:48:46;1.03;;;1.03;;
8636;SDS011;4356;49.068;8.658;2023-04-30T10:51:13;0.90;;;0.90;;
8636;SDS011;4356;49.068;8.658;2023-04-30T10:53:38;0.70;;;0.70;;
8636;SDS011;4356;49.068;8.658;2023-04-30T10:56:07;1.10;;;1.07;;
8636;SDS011;4356;49.068;8.658;2023-04-30T10:58:38;0.80;;;0.80;;
8636;SDS011;4356;49.068;8.658;2023-04-30T11:01:11;0.80;;;0.80;;
8636;SDS011;4356;49.068;8.658;2023-04-30T11:03:39;1.00;;;1.00;;
8636;SDS011;4356;49.068;8.658;2023-04-30T11:06:13;0.70;;;0.70;;
8636;SDS011;4356;49.068;8.658;2023-04-30T11:08:44;0.90;;;0.90;;
8636;SDS011;4356;49.068;8.658;2023-04-30T11:11:11;1.20;;;1.20;;
8636;SDS011;4356;49.068;8.658;2023-04-30T11:13:45;1.10;;;1.10;;
8636;SDS011;4356;49.068;8.658;2023-04-30T11:16:16;0.83;;;0.83;;
8636;SDS011;4356;49.068;8.658;2023-04-30T11:18:44;0.90;;;0.90;;
8636;SDS011;4356;49.068;8.658;2023-04-30T11:21:11;0.97;;;0.97;;
8636;SDS011;4356;49.068;8.658;2023-04-30T11:23:40;0.70;;;0.70;;
8636;SDS011;4356;49.068;8.658;2023-04-30T11:26:07;0.80;;;0.80;;
8636;SDS011;4356;49.068;8.658;2023-04-30T11:28:35;0.80;;;0.80;;
8636;SDS011;4356;49.068;8.658;2023-04-30T11:31:02;0.80;;;0.80;;
8636;SDS011;4356;49.068;8.658;2023-04-30T11:33:29;1.00;;;1.00;;
8636;SDS011;4356;49.068;8.658;2023-04-30T11:35:59;0.70;;;0.70;;
8636;SDS011;4356;49.068;8.658;2023-04-30T11:38:29;1.30;;;1.20;;
8636;SDS011;4356;49.068;8.658;2023-04-30T11:41:03;0.93;;;0.93;;
8636;SDS011;4356;49.068;8.658;2023-04-30T11:43:29;0.90;;;0.90;;
8636;SDS011;4356;49.068;8.658;2023-04-30T11:46:12;0.83;;;0.83;;
8636;SDS011;4356;49.068;8.658;2023-04-30T11:48:40;1.10;;;1.10;;
8636;SDS011;4356;49.068;8.658;2023-04-30T11:51:14;1.33;;;1.33;;
8636;SDS011;4356;49.068;8.658;2023-04-30T11:53:48;0.97;;;0.97;;
8636;SDS011;4356;49.068;8.658;2023-04-30T11:56:19;0.97;;;0.97;;
8636;SDS011;4356;49.068;8.658;2023-04-30T11:58:46;1.20;;;1.20;;
8636;SDS011;4356;49.068;8.658;2023-04-30T12:01:13;1.30;;;1.30;;
8636;SDS011;4356;49.068;8.658;2023-04-30T12:03:43;1.00;;;1.00;;
8636;SDS011;4356;49.068;8.658;2023-04-30T12:06:11;0.97;;;0.97;;
8636;SDS011;4356;49.068;8.658;2023-04-30T12:08:45;1.20;;;1.20;;
8636;SDS011;4356;49.068;8.658;2023-04-30T12:11:45;0.93;;;0.93;;
8636;SDS011;4356;49.068;8.658;2023-04-30T12:14:08;1.17;;;1.17;;
8636;SDS011;4356;49.068;8.658;2023-04-30T12:16:42;1.17;;;1.17;;
8636;SDS011;4356;49.068;8.658;2023-04-30T12:19:17;1.03;;;1.00;;
8636;SDS011;4356;49.068;8.658;2023-04-30T12:21:45;0.80;;;0.80;;
8636;SDS011;4356;49.068;8.658;2023-04-30T12:24:13;0.67;;;0.67;;
8636;SDS011;4356;49.068;8.658;2023-04-30T12:26:40;0.93;;;0.93;;
8636;SDS011;4356;49.068;8.658;2023-04-30T12:29:25;0.80;;;0.80;;
8636;SDS011;4356;49.068;8.658;2023-04-30T12:31:50;0.90;;;0.90;;
8636;SDS011;4356;49.068;8.658;2023-04-30T12:34:18;0.90;;;0.90;;
8636;SDS011;4356;49.068;8.658;2023-04-30T12:36:51;1.17;;;1.17;;
8636;SDS011;4356;49.068;8.658;2023-04-30T12:39:16;0.70;;;0.70;;
8636;SDS011;4356;49.068;8.658;2023-04-30T12:41:46;1.10;;;1.10;;
8636;SDS011;4356;49.068;8.658;2023-04-30T12:44:23;0.97;;;0.97;;
8636;SDS011;4356;49.068;8.658;2023-04-30T12:46:52;0.93;;;0.93;;
8636;SDS011;4356;49.068;8.658;2023-04-30T12:49:25;0.93;;;0.93;;
8636;SDS011;4356;49.068;8.658;2023-04-30T12:52:05;1.20;;;1.20;;
8636;SDS011;4356;49.068;8.658;2023-04-30T12:54:34;1.33;;;1.23;;
8636;SDS011;4356;49.068;8.658;2023-04-30T12:57:04;1.20;;;1.20;;
8636;SDS011;4356;49.068;8.658;2023-04-30T13:02:16;1.13;;;1.13;;
8636;SDS011;4356;49.068;8.658;2023-04-30T13:04:42;1.17;;;1.17;;
8636;SDS011;4356;49.068;8.658;2023-04-30T13:07:09;0.80;;;0.80;;
8636;SDS011;4356;49.068;8.658;2023-04-30T13:09:36;1.00;;;1.00;;
8636;SDS011;4356;49.068;8.658;2023-04-30T13:12:05;1.83;;;1.73;;
8636;SDS011;4356;49.068;8.658;2023-04-30T13:14:31;0.80;;;0.80;;
8636;SDS011;4356;49.068;8.658;2023-04-30T13:16:57;1.13;;;1.13;;
8636;SDS011;4356;49.068;8.658;2023-04-30T13:19:23;0.93;;;0.93;;
8636;SDS011;4356;49.068;8.658;2023-04-30T13:21:50;0.77;;;0.77;;
8636;SDS011;4356;49.068;8.658;2023-04-30T13:24:18;1.20;;;1.20;;
8636;SDS011;4356;49.068;8.658;2023-04-30T13:26:44;1.10;;;1.10;;
8636;SDS011;4356;49.068;8.658;2023-04-30T13:29:10;1.17;;;1.17;;
8636;SDS011;4356;49.068;8.658;2023-04-30T13:31:36;0.80;;;0.80;;
8636;SDS011;4356;49.068;8.658;2023-04-30T13:34:01;1.40;;;1.30;;
8636;SDS011;4356;49.068;8.658;2023-04-30T13:36:27;0.97;;;0.97;;
8636;SDS011;4356;49.068;8.658;2023-04-30T13:38:53;1.40;;;1.40;;
8636;SDS011;4356;49.068;8.658;2023-04-30T13:41:19;0.83;;;0.83;;
8636;SDS011;4356;49.068;8.658;2023-04-30T13:43:46;1.03;;;1.03;;
8636;SDS011;4356;49.068;8.658;2023-04-30T13:46:13;1.07;;;1.07;;
8636;SDS011;4356;49.068;8.658;2023-04-30T13:48:39;0.93;;;0.93;;
8636;SDS011;4356;49.068;8.658;2023-04-30T13:51:05;1.10;;;1.10;;
8636;SDS011;4356;49.068;8.658;2023-04-30T13:53:31;0.80;;;0.80;;
8636;SDS011;4356;49.068;8.658;2023-04-30T13:55:57;0.93;;;0.93;;
8636;SDS011;4356;49.068;8.658;2023-04-30T13:58:24;1.00;;;1.00;;
8636;SDS011;4356;49.068;8.658;2023-04-30T14:00:50;1.17;;;1.17;;
8636;SDS011;4356;49.068;8.658;2023-04-30T14:03:17;1.10;;;1.10;;
8636;SDS011;4356;49.068;8.658;2023-04-30T14:05:43;1.00;;;1.00;;
8636;SDS011;4356;49.068;8.658;2023-04-30T14:08:09;0.97;;;0.97;;
8636;SDS011;4356;49.068;8.658;2023-04-30T14:10:34;0.80;;;0.80;;
8636;SDS011;4356;49.068;8.658;2023-04-30T14:13:01;1.30;;;1.20;;
8636;SDS011;4356;49.068;8.658;2023-04-30T14:15:28;1.10;;;1.10;;
8636;SDS011;4356;49.068;8.658;2023-04-30T14:17:56;1.20;;;1.20;;
8636;SDS011;4356;49.068;8.658;2023-04-30T14:20:22;1.20;;;1.20;;
8636;SDS011;4356;49.068;8.658;2023-04-30T14:22:48;0.90;;;0.87;;
8636;SDS011;4356;49.068;8.658;2023-04-30T14:25:14;1.30;;;1.30;;
8636;SDS011;4356;49.068;8.658;2023-04-30T14:27:40;0.73;;;0.73;;
8636;SDS011;4356;49.068;8.658;2023-04-30T14:30:06;1.03;;;1.03;;
8636;SDS011;4356;49.068;8.658;2023-04-30T14:32:33;1.60;;;1.60;;
8636;SDS011;4356;49.068;8.658;2023-04-30T14:34:58;1.00;;;1.00;;
8636;SDS011;4356;49.068;8.658;2023-04-30T14:37:24;1.13;;;1.13;;
8636;SDS011;4356;49.068;8.658;2023-04-30T14:39:50;1.13;;;1.13;;
8636;SDS011;4356;49.068;8.658;2023-04-30T14:42:16;1.03;;;1.03;;
8636;SDS011;4356;49.068;8.658;2023-04-30T14:44:41;0.90;;;0.90;;
8636;SDS011;4356;49.068;8.658;2023-04-30T14:47:07;1.10;;;1.10;;
8636;SDS011;4356;49.068;8.658;2023-04-30T14:49:33;0.60;;;0.60;;
8636;SDS011;4356;49.068;8.658;2023-04-30T14:52:00;0.47;;;0.47;;
8636;SDS011;4356;49.068;8.658;2023-04-30T14:54:26;1.80;;;1.50;;
8636;SDS011;4356;49.068;8.658;2023-04-30T14:56:52;1.40;;;1.40;;
8636;SDS011;4356;49.068;8.658;2023-04-30T14:59:17;0.80;;;0.80;;
8636;SDS011;4356;49.068;8.658;2023-04-30T15:01:43;1.60;;;1.57;;
8636;SDS011;4356;49.068;8.658;2023-04-30T15:04:09;0.90;;;0.90;;
8636;SDS011;4356;49.068;8.658;2023-04-30T15:06:35;1.13;;;1.13;;
8636;SDS011;4356;49.068;8.658;2023-04-30T15:09:00;0.80;;;0.80;;
8636;SDS011;4356;49.068;8.658;2023-04-30T15:11:26;0.70;;;0.70;;
8636;SDS011;4356;49.068;8.658;2023-04-30T15:13:52;0.90;;;0.90;;
8636;SDS011;4356;49.068;8.658;2023-04-30T15:16:19;1.00;;;1.00;;
8636;SDS011;4356;49.068;8.658;2023-04-30T15:18:45;1.10;;;1.10;;
8636;SDS011;4356;49.068;8.658;2023-04-30T15:21:13;0.87;;;0.87;;
8636;SDS011;4356;49.068;8.658;2023-04-30T15:23:39;1.00;;;1.00;;
8636;SDS011;4356;49.068;8.658;2023-04-30T15:26:05;1.70;;;1.30;;
8636;SDS011;4356;49.068;8.658;2023-04-30T15:28:31;1.20;;;1.10;;
8636;SDS011;4356;49.068;8.658;2023-04-30T15:31:00;0.90;;;0.90;;
8636;SDS011;4356;49.068;8.658;2023-04-30T15:33:25;1.23;;;1.23;;
8636;SDS011;4356;49.068;8.658;2023-04-30T15:35:53;0.80;;;0.80;;
8636;SDS011;4356;49.068;8.658;2023-04-30T15:38:19;0.87;;;0.87;;
8636;SDS011;4356;49.068;8.658;2023-04-30T15:40:45;1.23;;;1.17;;
8636;SDS011;4356;49.068;8.658;2023-04-30T15:43:11;1.20;;;1.20;;
8636;SDS011;4356;49.068;8.658;2023-04-30T15:45:38;1.53;;;1.07;;
8636;SDS011;4356;49.068;8.658;2023-04-30T15:48:04;0.80;;;0.80;;